sensor_id;sensor_type;location;lat;lon;timestamp;pressure;altitude;pressure_sealevel;temperature;humidity
33949;BME280;20229;49.856;19.030;2023-04-24T00:04:37;100682.36;;;13.09;50.89
33949;BME280;20229;49.856;19.030;2023-04-24T00:09:53;100669.85;;;13.05;50.93
33949;BME280;20229;49.856;19.030;2023-04-24T00:15:08;100666.31;;;13.03;50.22
33949;BME280;20229;49.856;19.030;2023-04-24T00:20:23;100652.95;;;12.98;50.97
33949;BME280;20229;49.856;19.030;2023-04-24T00:25:37;100644.80;;;12.97;50.83
33949;BME280;20229;49.856;19.030;2023-04-24T00:30:51;100650.52;;;12.94;50.86
33949;BME280;20229;49.856;19.030;2023-04-24T00:36:05;100645.04;;;12.94;50.09
33949;BME280;20229;49.856;19.030;2023-04-24T00:41:19;100634.95;;;12.94;50.46
33949;BME280;20229;49.856;19.030;2023-04-24T00:46:35;100625.85;;;12.94;49.98
33949;BME280;20229;49.856;19.030;2023-04-24T00:51:49;100620.58;;;12.90;50.54
33949;BME280;20229;49.856;19.030;2023-04-24T00:57:04;100623.32;;;12.90;50.55
33949;BME280;20229;49.856;19.030;2023-04-24T01:02:19;100611.49;;;12.90;49.92
33949;BME280;20229;49.856;19.030;2023-04-24T01:07:34;100608.63;;;12.91;49.65
33949;BME280;20229;49.856;19.030;2023-04-24T01:12:50;100613.02;;;12.94;49.95
33949;BME280;20229;49.856;19.030;2023-04-24T01:18:04;100593.86;;;12.94;49.64
33949;BME280;20229;49.856;19.030;2023-04-24T01:23:19;100591.98;;;12.95;48.74
33949;BME280;20229;49.856;19.030;2023-04-24T01:28:33;100588.38;;;12.94;48.84
33949;BME280;20229;49.856;19.030;2023-04-24T01:33:47;100574.76;;;12.92;48.92
33949;BME280;20229;49.856;19.030;2023-04-24T01:39:02;100577.50;;;12.92;48.85
33949;BME280;20229;49.856;19.030;2023-04-24T01:44:17;100575.96;;;12.88;49.01
33949;BME280;20229;49.856;19.030;2023-04-24T01:49:31;100563.46;;;12.84;49.01
33949;BME280;20229;49.856;19.030;2023-04-24T01:54:46;100558.09;;;12.83;49.14
33949;BME280;20229;49.856;19.030;2023-04-24T02:00:00;100550.08;;;12.80;48.81
33949;BME280;20229;49.856;19.030;2023-04-24T02:05:13;100543.94;;;12.76;48.90
33949;BME280;20229;49.856;19.030;2023-04-24T02:10:27;100531.77;;;12.80;48.92
33949;BME280;20229;49.856;19.030;2023-04-24T02:15:41;100535.28;;;12.82;48.84
33949;BME280;20229;49.856;19.030;2023-04-24T02:20:55;100531.24;;;12.88;48.41
33949;BME280;20229;49.856;19.030;2023-04-24T02:26:10;100527.97;;;12.96;48.32
33949;BME280;20229;49.856;19.030;2023-04-24T02:31:24;100517.34;;;13.04;48.02
33949;BME280;20229;49.856;19.030;2023-04-24T02:36:38;100516.84;;;13.11;47.85
33949;BME280;20229;49.856;19.030;2023-04-24T02:41:52;100517.29;;;13.18;47.25
33949;BME280;20229;49.856;19.030;2023-04-24T02:47:05;100513.34;;;13.22;47.52
33949;BME280;20229;49.856;19.030;2023-04-24T02:52:20;100518.65;;;13.25;47.42
33949;BME280;20229;49.856;19.030;2023-04-24T02:57:34;100511.30;;;13.26;46.94
33949;BME280;20229;49.856;19.030;2023-04-24T03:02:48;100509.42;;;13.26;46.23
33949;BME280;20229;49.856;19.030;2023-04-24T03:08:03;100507.69;;;13.25;46.51
33949;BME280;20229;49.856;19.030;2023-04-24T03:13:18;100497.77;;;13.23;46.37
33949;BME280;20229;49.856;19.030;2023-04-24T03:18:33;100509.42;;;13.26;46.37
33949;BME280;20229;49.856;19.030;2023-04-24T03:23:46;100500.87;;;13.31;45.72
33949;BME280;20229;49.856;19.030;2023-04-24T03:29:01;100505.70;;;13.40;45.75
33949;BME280;20229;49.856;19.030;2023-04-24T03:34:15;100500.20;;;13.53;45.70
33949;BME280;20229;49.856;19.030;2023-04-24T03:39:29;100502.16;;;13.63;45.26
33949;BME280;20229;49.856;19.030;2023-04-24T03:44:42;100498.34;;;13.79;44.76
33949;BME280;20229;49.856;19.030;2023-04-24T03:49:56;100499.50;;;13.87;44.68
33949;BME280;20229;49.856;19.030;2023-04-24T03:55:10;100494.87;;;14.01;44.54
33949;BME280;20229;49.856;19.030;2023-04-24T04:00:26;100501.08;;;14.16;44.27
33949;BME280;20229;49.856;19.030;2023-04-24T04:05:41;100505.77;;;14.26;43.98
33949;BME280;20229;49.856;19.030;2023-04-24T04:10:54;100499.82;;;14.32;44.83
33949;BME280;20229;49.856;19.030;2023-04-24T04:16:08;100499.14;;;14.42;44.00
33949;BME280;20229;49.856;19.030;2023-04-24T04:21:22;100496.91;;;14.47;44.55
33949;BME280;20229;49.856;19.030;2023-04-24T04:26:36;100502.84;;;14.53;43.91
33949;BME280;20229;49.856;19.030;2023-04-24T04:31:52;100491.27;;;14.61;44.07
33949;BME280;20229;49.856;19.030;2023-04-24T04:37:05;100499.04;;;14.67;43.11
33949;BME280;20229;49.856;19.030;2023-04-24T04:42:20;100494.59;;;14.77;44.24
33949;BME280;20229;49.856;19.030;2023-04-24T04:47:34;100494.63;;;14.89;43.50
33949;BME280;20229;49.856;19.030;2023-04-24T04:52:48;100503.95;;;15.10;42.90
33949;BME280;20229;49.856;19.030;2023-04-24T04:58:01;100494.24;;;15.40;43.24
33949;BME280;20229;49.856;19.030;2023-04-24T05:03:16;100499.20;;;15.70;42.42
33949;BME280;20229;49.856;19.030;2023-04-24T05:08:35;100494.82;;;16.01;41.30
33949;BME280;20229;49.856;19.030;2023-04-24T05:13:48;100494.52;;;16.27;41.85
33949;BME280;20229;49.856;19.030;2023-04-24T05:19:02;100489.34;;;16.44;40.96
33949;BME280;20229;49.856;19.030;2023-04-24T05:24:16;100487.77;;;16.63;39.98
33949;BME280;20229;49.856;19.030;2023-04-24T05:29:31;100494.90;;;16.77;40.25
33949;BME280;20229;49.856;19.030;2023-04-24T05:34:49;100502.09;;;16.89;40.56
33949;BME280;20229;49.856;19.030;2023-04-24T05:40:04;100497.01;;;17.05;40.28
33949;BME280;20229;49.856;19.030;2023-04-24T05:45:18;100495.81;;;17.19;40.74
33949;BME280;20229;49.856;19.030;2023-04-24T05:50:32;100485.80;;;17.39;40.17
33949;BME280;20229;49.856;19.030;2023-04-24T05:55:47;100490.91;;;17.95;39.51
33949;BME280;20229;49.856;19.030;2023-04-24T06:01:01;100482.12;;;19.56;36.80
33949;BME280;20229;49.856;19.030;2023-04-24T06:06:16;100479.03;;;20.62;35.08
33949;BME280;20229;49.856;19.030;2023-04-24T06:11:30;100473.18;;;23.14;32.43
33949;BME280;20229;49.856;19.030;2023-04-24T06:16:45;100465.13;;;27.38;25.69
33949;BME280;20229;49.856;19.030;2023-04-24T06:21:58;100459.13;;;30.39;23.97
33949;BME280;20229;49.856;19.030;2023-04-24T06:27:12;100450.95;;;28.98;24.74
33949;BME280;20229;49.856;19.030;2023-04-24T06:32:27;100447.90;;;28.93;24.97
33949;BME280;20229;49.856;19.030;2023-04-24T06:37:42;100449.73;;;29.74;23.48
33949;BME280;20229;49.856;19.030;2023-04-24T06:42:56;100436.51;;;33.31;21.22
33949;BME280;20229;49.856;19.030;2023-04-24T06:48:13;100435.27;;;36.32;18.14
33949;BME280;20229;49.856;19.030;2023-04-24T06:53:26;100431.73;;;35.35;19.60
33949;BME280;20229;49.856;19.030;2023-04-24T06:58:40;100431.05;;;32.40;20.45
33949;BME280;20229;49.856;19.030;2023-04-24T07:03:55;100429.20;;;30.90;21.84
33949;BME280;20229;49.856;19.030;2023-04-24T07:09:09;100421.91;;;30.24;22.61
33949;BME280;20229;49.856;19.030;2023-04-24T07:14:23;100424.20;;;29.16;23.25
33949;BME280;20229;49.856;19.030;2023-04-24T07:19:37;100430.17;;;28.93;22.76
33949;BME280;20229;49.856;19.030;2023-04-24T07:24:51;100420.52;;;30.46;22.92
33949;BME280;20229;49.856;19.030;2023-04-24T07:30:06;100414.27;;;32.08;21.40
33949;BME280;20229;49.856;19.030;2023-04-24T07:35:20;100427.36;;;34.18;19.25
33949;BME280;20229;49.856;19.030;2023-04-24T07:40:35;100426.07;;;36.25;17.65
33949;BME280;20229;49.856;19.030;2023-04-24T07:45:50;100415.00;;;37.86;16.23
33949;BME280;20229;49.856;19.030;2023-04-24T07:51:03;100408.61;;;38.68;15.90
33949;BME280;20229;49.856;19.030;2023-04-24T07:56:17;100400.23;;;39.65;15.17
33949;BME280;20229;49.856;19.030;2023-04-24T08:01:32;100403.87;;;40.17;16.34
33949;BME280;20229;49.856;19.030;2023-04-24T08:06:47;100385.72;;;40.57;14.81
33949;BME280;20229;49.856;19.030;2023-04-24T08:12:02;100389.93;;;40.70;14.69
33949;BME280;20229;49.856;19.030;2023-04-24T08:17:16;100381.85;;;40.07;13.38
33949;BME280;20229;49.856;19.030;2023-04-24T08:22:30;100384.20;;;39.64;15.55
33949;BME280;20229;49.856;19.030;2023-04-24T08:27:44;100380.99;;;40.17;15.53
33949;BME280;20229;49.856;19.030;2023-04-24T08:32:58;100382.87;;;41.07;14.97
33949;BME280;20229;49.856;19.030;2023-04-24T08:38:12;100377.28;;;40.06;14.90
33949;BME280;20229;49.856;19.030;2023-04-24T08:43:28;100379.99;;;37.21;16.43
33949;BME280;20229;49.856;19.030;2023-04-24T08:48:42;100374.70;;;35.37;17.49
33949;BME280;20229;49.856;19.030;2023-04-24T08:53:57;100368.13;;;34.05;19.24
33949;BME280;20229;49.856;19.030;2023-04-24T08:59:11;100371.28;;;33.03;19.99
33949;BME280;20229;49.856;19.030;2023-04-24T09:04:27;100384.78;;;32.22;20.79
33949;BME280;20229;49.856;19.030;2023-04-24T09:09:42;100385.91;;;31.34;21.56
33949;BME280;20229;49.856;19.030;2023-04-24T09:14:56;100395.08;;;30.60;21.81
33949;BME280;20229;49.856;19.030;2023-04-24T09:20:11;100401.00;;;29.93;22.63
33949;BME280;20229;49.856;19.030;2023-04-24T09:25:31;100398.25;;;29.27;23.45
33949;BME280;20229;49.856;19.030;2023-04-24T09:38:17;100394.38;;;27.92;24.60
33949;BME280;20229;49.856;19.030;2023-04-24T09:43:32;100390.37;;;27.45;24.85
33949;BME280;20229;49.856;19.030;2023-04-24T09:48:46;100400.82;;;27.08;25.01
33949;BME280;20229;49.856;19.030;2023-04-24T09:54:00;100397.25;;;26.72;25.15
33949;BME280;20229;49.856;19.030;2023-04-24T09:59:15;100403.16;;;26.26;26.25
33949;BME280;20229;49.856;19.030;2023-04-24T10:04:29;100394.43;;;25.84;26.87
33949;BME280;20229;49.856;19.030;2023-04-24T10:09:43;100392.37;;;25.63;26.75
33949;BME280;20229;49.856;19.030;2023-04-24T10:14:58;100397.37;;;25.53;27.28
33949;BME280;20229;49.856;19.030;2023-04-24T10:20:12;100396.29;;;25.39;27.90
33949;BME280;20229;49.856;19.030;2023-04-24T10:25:28;100387.90;;;25.24;27.80
33949;BME280;20229;49.856;19.030;2023-04-24T10:30:43;100391.48;;;25.10;28.64
33949;BME280;20229;49.856;19.030;2023-04-24T10:35:59;100400.52;;;24.74;28.61
33949;BME280;20229;49.856;19.030;2023-04-24T10:41:13;100406.80;;;24.14;29.73
33949;BME280;20229;49.856;19.030;2023-04-24T10:46:38;100405.90;;;23.74;31.17
33949;BME280;20229;49.856;19.030;2023-04-24T10:51:54;100423.08;;;23.22;31.63
33949;BME280;20229;49.856;19.030;2023-04-24T11:02:39;100411.68;;;22.34;33.79
33949;BME280;20229;49.856;19.030;2023-04-24T11:13:26;100416.61;;;21.71;36.50
33949;BME280;20229;49.856;19.030;2023-04-24T11:18:44;100414.44;;;21.31;38.11
33949;BME280;20229;49.856;19.030;2023-04-24T11:29:42;100420.07;;;20.60;40.61
33949;BME280;20229;49.856;19.030;2023-04-24T11:35:00;100430.17;;;20.33;41.25
33949;BME280;20229;49.856;19.030;2023-04-24T11:40:16;100429.41;;;20.13;42.38
33949;BME280;20229;49.856;19.030;2023-04-24T11:45:30;100442.30;;;19.77;43.98
33949;BME280;20229;49.856;19.030;2023-04-24T11:50:46;100442.22;;;19.49;44.45
33949;BME280;20229;49.856;19.030;2023-04-24T11:56:03;100453.95;;;19.14;45.64
33949;BME280;20229;49.856;19.030;2023-04-24T12:01:17;100462.12;;;18.86;46.52
33949;BME280;20229;49.856;19.030;2023-04-24T12:06:31;100444.19;;;18.61;46.40
33949;BME280;20229;49.856;19.030;2023-04-24T12:11:54;100441.43;;;18.42;48.89
33949;BME280;20229;49.856;19.030;2023-04-24T12:17:11;100451.72;;;18.21;50.60
33949;BME280;20229;49.856;19.030;2023-04-24T12:22:25;100447.20;;;18.10;51.24
33949;BME280;20229;49.856;19.030;2023-04-24T12:27:40;100434.36;;;17.99;53.85
33949;BME280;20229;49.856;19.030;2023-04-24T12:32:57;100441.87;;;17.87;55.13
33949;BME280;20229;49.856;19.030;2023-04-24T12:38:13;100442.37;;;17.72;54.35
33949;BME280;20229;49.856;19.030;2023-04-24T12:43:28;100434.31;;;17.59;55.85
33949;BME280;20229;49.856;19.030;2023-04-24T12:48:41;100439.75;;;17.39;57.00
33949;BME280;20229;49.856;19.030;2023-04-24T12:53:56;100443.82;;;17.14;59.72
33949;BME280;20229;49.856;19.030;2023-04-24T12:59:10;100444.19;;;16.89;60.01
33949;BME280;20229;49.856;19.030;2023-04-24T13:04:23;100442.03;;;16.71;60.31
33949;BME280;20229;49.856;19.030;2023-04-24T13:09:38;100416.84;;;16.44;63.29
33949;BME280;20229;49.856;19.030;2023-04-24T13:14:52;100414.65;;;16.27;63.82
33949;BME280;20229;49.856;19.030;2023-04-24T13:20:07;100410.20;;;16.03;65.34
33949;BME280;20229;49.856;19.030;2023-04-24T13:25:21;100418.73;;;15.89;65.93
33949;BME280;20229;49.856;19.030;2023-04-24T13:30:38;100410.02;;;15.72;65.21
33949;BME280;20229;49.856;19.030;2023-04-24T13:35:52;100412.72;;;15.61;66.73
33949;BME280;20229;49.856;19.030;2023-04-24T13:41:06;100416.48;;;15.60;68.49
33949;BME280;20229;49.856;19.030;2023-04-24T13:46:20;100433.75;;;15.62;68.28
33949;BME280;20229;49.856;19.030;2023-04-24T13:51:34;100425.75;;;15.59;68.05
33949;BME280;20229;49.856;19.030;2023-04-24T13:56:49;100423.48;;;15.64;68.87
33949;BME280;20229;49.856;19.030;2023-04-24T14:02:04;100408.00;;;15.74;70.03
33949;BME280;20229;49.856;19.030;2023-04-24T14:07:18;100400.98;;;15.82;70.52
33949;BME280;20229;49.856;19.030;2023-04-24T14:12:32;100383.45;;;15.83;67.87
33949;BME280;20229;49.856;19.030;2023-04-24T14:17:45;100384.35;;;15.83;68.50
33949;BME280;20229;49.856;19.030;2023-04-24T14:22:59;100389.49;;;15.76;70.21
33949;BME280;20229;49.856;19.030;2023-04-24T14:28:13;100384.50;;;15.70;69.38
33949;BME280;20229;49.856;19.030;2023-04-24T14:33:27;100392.48;;;15.62;68.76
33949;BME280;20229;49.856;19.030;2023-04-24T14:38:41;100382.98;;;15.55;70.95
33949;BME280;20229;49.856;19.030;2023-04-24T14:43:55;100391.48;;;15.52;69.48
33949;BME280;20229;49.856;19.030;2023-04-24T14:49:09;100388.59;;;15.53;69.66
33949;BME280;20229;49.856;19.030;2023-04-24T14:54:24;100381.60;;;15.49;69.13
33949;BME280;20229;49.856;19.030;2023-04-24T14:59:39;100388.74;;;15.41;70.55
33949;BME280;20229;49.856;19.030;2023-04-24T15:04:53;100380.99;;;15.23;72.75
33949;BME280;20229;49.856;19.030;2023-04-24T15:10:08;100390.98;;;15.13;72.05
33949;BME280;20229;49.856;19.030;2023-04-24T15:15:22;100382.97;;;14.99;70.95
33949;BME280;20229;49.856;19.030;2023-04-24T15:20:36;100380.84;;;14.91;70.59
33949;BME280;20229;49.856;19.030;2023-04-24T15:25:52;100354.54;;;14.65;72.13
33949;BME280;20229;49.856;19.030;2023-04-24T15:31:05;100373.14;;;14.61;72.58
33949;BME280;20229;49.856;19.030;2023-04-24T15:36:19;100376.83;;;14.49;73.97
33949;BME280;20229;49.856;19.030;2023-04-24T15:41:34;100367.31;;;14.42;72.71
33949;BME280;20229;49.856;19.030;2023-04-24T15:46:48;100370.23;;;14.27;73.03
33949;BME280;20229;49.856;19.030;2023-04-24T15:52:04;100367.10;;;14.21;72.88
33949;BME280;20229;49.856;19.030;2023-04-24T15:57:18;100376.17;;;14.10;74.38
33949;BME280;20229;49.856;19.030;2023-04-24T16:02:32;100373.24;;;14.00;74.12
33949;BME280;20229;49.856;19.030;2023-04-24T16:07:46;100372.05;;;13.92;73.97
33949;BME280;20229;49.856;19.030;2023-04-24T16:13:00;100367.15;;;13.84;75.27
33949;BME280;20229;49.856;19.030;2023-04-24T16:18:17;100368.73;;;13.75;75.60
33949;BME280;20229;49.856;19.030;2023-04-24T16:23:30;100366.57;;;13.68;76.71
33949;BME280;20229;49.856;19.030;2023-04-24T16:28:44;100369.86;;;13.60;76.81
33949;BME280;20229;49.856;19.030;2023-04-24T16:33:58;100377.58;;;13.55;76.64
33949;BME280;20229;49.856;19.030;2023-04-24T16:39:12;100368.78;;;13.50;75.31
33949;BME280;20229;49.856;19.030;2023-04-24T16:44:27;100369.04;;;13.47;75.09
33949;BME280;20229;49.856;19.030;2023-04-24T16:49:41;100372.98;;;13.43;75.39
33949;BME280;20229;49.856;19.030;2023-04-24T16:54:55;100360.48;;;13.38;76.45
33949;BME280;20229;49.856;19.030;2023-04-24T17:00:09;100369.18;;;13.32;77.25
33949;BME280;20229;49.856;19.030;2023-04-24T17:05:25;100373.90;;;13.30;76.16
33949;BME280;20229;49.856;19.030;2023-04-24T17:10:38;100368.63;;;13.27;77.51
33949;BME280;20229;49.856;19.030;2023-04-24T17:15:53;100362.59;;;13.22;77.66
33949;BME280;20229;49.856;19.030;2023-04-24T17:21:08;100369.28;;;13.18;78.07
33949;BME280;20229;49.856;19.030;2023-04-24T17:26:22;100370.47;;;13.14;78.33
33949;BME280;20229;49.856;19.030;2023-04-24T17:31:35;100373.46;;;13.11;78.23
33949;BME280;20229;49.856;19.030;2023-04-24T17:36:49;100370.72;;;13.11;78.38
33949;BME280;20229;49.856;19.030;2023-04-24T17:42:04;100381.77;;;13.09;78.25
33949;BME280;20229;49.856;19.030;2023-04-24T17:47:18;100380.90;;;13.09;77.83
33949;BME280;20229;49.856;19.030;2023-04-24T17:52:34;100380.90;;;13.09;79.03
33949;BME280;20229;49.856;19.030;2023-04-24T17:57:49;100383.77;;;13.07;78.10
33949;BME280;20229;49.856;19.030;2023-04-24T18:03:03;100393.08;;;13.05;78.33
33949;BME280;20229;49.856;19.030;2023-04-24T18:08:19;100404.03;;;13.05;80.89
33949;BME280;20229;49.856;19.030;2023-04-24T18:13:32;100409.95;;;12.99;79.34
33949;BME280;20229;49.856;19.030;2023-04-24T18:18:46;100414.43;;;13.00;80.66
33949;BME280;20229;49.856;19.030;2023-04-24T18:24:00;100414.55;;;12.98;79.55
33949;BME280;20229;49.856;19.030;2023-04-24T18:29:14;100422.86;;;12.97;80.13
33949;BME280;20229;49.856;19.030;2023-04-24T18:34:27;100429.34;;;12.96;80.25
33949;BME280;20229;49.856;19.030;2023-04-24T18:39:43;100435.91;;;12.93;81.07
33949;BME280;20229;49.856;19.030;2023-04-24T18:44:57;100448.19;;;12.87;81.88
33949;BME280;20229;49.856;19.030;2023-04-24T18:50:16;100457.41;;;12.86;83.77
33949;BME280;20229;49.856;19.030;2023-04-24T18:55:31;100464.17;;;12.81;84.44
33949;BME280;20229;49.856;19.030;2023-04-24T19:00:48;100469.77;;;12.79;85.47
33949;BME280;20229;49.856;19.030;2023-04-24T19:06:02;100470.27;;;12.72;85.70
33949;BME280;20229;49.856;19.030;2023-04-24T19:11:16;100467.87;;;12.67;86.34
33949;BME280;20229;49.856;19.030;2023-04-24T19:16:31;100469.85;;;12.65;87.29
33949;BME280;20229;49.856;19.030;2023-04-24T19:21:45;100471.80;;;12.63;87.77
33949;BME280;20229;49.856;19.030;2023-04-24T19:27:01;100468.27;;;12.61;88.24
33949;BME280;20229;49.856;19.030;2023-04-24T19:32:15;100470.05;;;12.62;88.79
33949;BME280;20229;49.856;19.030;2023-04-24T19:37:29;100470.15;;;12.60;88.70
33949;BME280;20229;49.856;19.030;2023-04-24T19:42:47;100478.48;;;12.59;88.31
33949;BME280;20229;49.856;19.030;2023-04-24T19:48:02;100474.20;;;12.55;88.62
33949;BME280;20229;49.856;19.030;2023-04-24T19:53:16;100475.07;;;12.55;89.45
33949;BME280;20229;49.856;19.030;2023-04-24T19:58:30;100472.54;;;12.52;91.66
33949;BME280;20229;49.856;19.030;2023-04-24T20:03:44;100468.93;;;12.52;90.92
33949;BME280;20229;49.856;19.030;2023-04-24T20:08:58;100468.93;;;12.52;91.60
33949;BME280;20229;49.856;19.030;2023-04-24T20:14:13;100467.15;;;12.51;90.34
33949;BME280;20229;49.856;19.030;2023-04-24T20:19:27;100466.41;;;12.49;91.94
33949;BME280;20229;49.856;19.030;2023-04-24T20:24:41;100473.62;;;12.50;92.06
33949;BME280;20229;49.856;19.030;2023-04-24T20:29:55;100479.22;;;12.48;93.19
33949;BME280;20229;49.856;19.030;2023-04-24T20:35:09;100482.04;;;12.47;93.13
33949;BME280;20229;49.856;19.030;2023-04-24T20:40:24;100481.48;;;12.41;93.44
33949;BME280;20229;49.856;19.030;2023-04-24T20:45:40;100474.26;;;12.40;92.28
33949;BME280;20229;49.856;19.030;2023-04-24T20:50:54;100486.76;;;12.44;92.02
33949;BME280;20229;49.856;19.030;2023-04-24T20:56:08;100482.04;;;12.47;93.25
33949;BME280;20229;49.856;19.030;2023-04-24T21:01:23;100479.51;;;12.43;94.71
33949;BME280;20229;49.856;19.030;2023-04-24T21:06:37;100482.47;;;12.40;93.72
33949;BME280;20229;49.856;19.030;2023-04-24T21:11:51;100480.81;;;12.38;93.68
33949;BME280;20229;49.856;19.030;2023-04-24T21:17:05;100487.17;;;12.38;93.61
33949;BME280;20229;49.856;19.030;2023-04-24T21:22:19;100488.16;;;12.37;93.80
33949;BME280;20229;49.856;19.030;2023-04-24T21:27:35;100494.59;;;12.36;93.94
33949;BME280;20229;49.856;19.030;2023-04-24T21:32:51;100499.52;;;12.31;94.15
33949;BME280;20229;49.856;19.030;2023-04-24T21:38:05;100504.63;;;12.23;94.58
33949;BME280;20229;49.856;19.030;2023-04-24T21:43:20;100512.36;;;12.16;94.46
33949;BME280;20229;49.856;19.030;2023-04-24T21:48:34;100502.48;;;12.14;95.14
33949;BME280;20229;49.856;19.030;2023-04-24T21:53:47;100509.02;;;12.11;93.58
33949;BME280;20229;49.856;19.030;2023-04-24T21:59:01;100510.02;;;12.10;94.35
33949;BME280;20229;49.856;19.030;2023-04-24T22:04:15;100510.34;;;12.06;93.92
33949;BME280;20229;49.856;19.030;2023-04-24T22:09:29;100508.66;;;12.03;94.99
33949;BME280;20229;49.856;19.030;2023-04-24T22:14:43;100505.93;;;12.03;94.60
33949;BME280;20229;49.856;19.030;2023-04-24T22:19:57;100513.58;;;11.98;94.72
33949;BME280;20229;49.856;19.030;2023-04-24T22:25:11;100515.72;;;11.93;94.82
33949;BME280;20229;49.856;19.030;2023-04-24T22:30:25;100531.27;;;11.92;93.40
33949;BME280;20229;49.856;19.030;2023-04-24T22:35:38;100519.52;;;11.90;95.42
33949;BME280;20229;49.856;19.030;2023-04-24T22:40:53;100530.58;;;11.89;94.53
33949;BME280;20229;49.856;19.030;2023-04-24T22:46:08;100536.16;;;11.87;94.65
33949;BME280;20229;49.856;19.030;2023-04-24T22:51:22;100538.97;;;11.86;94.65
33949;BME280;20229;49.856;19.030;2023-04-24T22:56:36;100526.57;;;11.80;95.06
33949;BME280;20229;49.856;19.030;2023-04-24T23:01:50;100527.71;;;11.76;95.65
33949;BME280;20229;49.856;19.030;2023-04-24T23:07:04;100528.89;;;11.72;94.83
33949;BME280;20229;49.856;19.030;2023-04-24T23:12:19;100519.92;;;11.70;95.85
33949;BME280;20229;49.856;19.030;2023-04-24T23:17:33;100516.51;;;11.66;95.31
33949;BME280;20229;49.856;19.030;2023-04-24T23:22:47;100519.44;;;11.63;95.57
33949;BME280;20229;49.856;19.030;2023-04-24T23:28:01;100513.29;;;11.60;95.80
33949;BME280;20229;49.856;19.030;2023-04-24T23:33:15;100514.34;;;11.57;96.20
33949;BME280;20229;49.856;19.030;2023-04-24T23:38:29;100517.20;;;11.56;95.92
33949;BME280;20229;49.856;19.030;2023-04-24T23:43:43;100509.95;;;11.55;96.10
33949;BME280;20229;49.856;19.030;2023-04-24T23:48:57;100512.98;;;11.50;95.94
33949;BME280;20229;49.856;19.030;2023-04-24T23:54:11;100501.17;;;11.49;96.02
33949;BME280;20229;49.856;19.030;2023-04-24T23:59:25;100505.85;;;11.47;96.11
